Landis, North Carolina
Current Conditions -  °F | °C
As of 4:35 PM on Saturday 22 Nov 2014 (Local Time) from KRUQ Reporting Station
Clear Clear  
Wind Chill: 50°   Ceiling: Unl
Heat Index: 50°   Visibility: 10mi
Dew Point: 17°   Wind: 5mph
Humidity: 27%   Direction: 160°SSE
Pressure: 30.37"   Gusts: NA
Location:  35.55°N, 80.61°W
Report Text: KRUQ 222135Z AUTO 16004KT 10SM CLR 10/M08 A3037 RMK AO2 T01021084
Loading
Personal Weather Stations






























Interactive Weather Map New forecast layout! Learn more

10-Day Weather Forecast

Advertisements
Track Severe Weather on mobile